createdAt,value
2022-10-17T00:02:37.917Z,5.93
2022-10-17T00:05:42.034Z,6.90
2022-10-17T00:08:45.827Z,6.80
2022-10-17T00:11:49.880Z,7.10
2022-10-17T00:14:52.464Z,6.78
2022-10-17T00:17:55.311Z,7.70
2022-10-17T00:20:57.884Z,6.33
2022-10-17T00:24:01.697Z,6.30
2022-10-17T00:27:05.895Z,7.85
2022-10-17T00:30:12.137Z,8.05
2022-10-17T00:33:14.883Z,7.25
2022-10-17T00:36:19.559Z,7.60
2022-10-17T00:39:22.250Z,7.57
2022-10-17T00:42:26.790Z,8.15
2022-10-17T00:45:31.266Z,7.93
2022-10-17T00:48:34.018Z,8.02
2022-10-17T00:51:42.341Z,7.17
2022-10-17T00:54:49.417Z,7.53
2022-10-17T00:57:54.305Z,8.48
2022-10-17T01:00:57.009Z,9.18
2022-10-17T01:03:59.972Z,8.38
2022-10-17T01:07:02.600Z,8.10
2022-10-17T01:10:08.607Z,9.87
2022-10-17T01:13:19.859Z,10.95
2022-10-17T01:16:31.287Z,11.18
2022-10-17T01:19:59.087Z,12.77
2022-10-17T01:23:24.124Z,14.10
2022-10-17T01:26:37.928Z,12.60
2022-10-17T01:30:04.400Z,11.82
2022-10-17T01:33:13.865Z,11.20
2022-10-17T01:36:27.346Z,12.13
2022-10-17T01:39:43.942Z,12.17
2022-10-17T01:42:55.740Z,12.80
2022-10-17T01:46:02.896Z,10.80
2022-10-17T01:49:09.372Z,11.57
2022-10-17T01:52:16.104Z,11.15
2022-10-17T01:55:22.652Z,11.83
2022-10-17T01:58:28.720Z,11.30
2022-10-17T02:01:32.563Z,10.50
2022-10-17T02:04:37.224Z,11.95
2022-10-17T02:07:42.585Z,10.27
2022-10-17T02:10:52.172Z,10.80
2022-10-17T02:14:22.092Z,10.43
2022-10-17T02:17:37.605Z,11.48
2022-10-17T02:20:52.806Z,10.98
2022-10-17T02:24:01.691Z,10.77
2022-10-17T02:27:09.794Z,9.40
2022-10-17T02:30:17.114Z,9.87
2022-10-17T02:33:24.302Z,9.68
2022-10-17T02:36:33.526Z,10.02
2022-10-17T02:39:39.472Z,13.15
2022-10-17T02:42:45.822Z,10.27
2022-10-17T02:45:49.216Z,9.17
2022-10-17T02:48:54.260Z,10.77
2022-10-17T02:52:05.043Z,9.32
2022-10-17T02:55:13.364Z,9.45
2022-10-17T02:58:20.790Z,8.53
2022-10-17T03:01:24.076Z,10.67
2022-10-17T03:04:26.662Z,9.50
2022-10-17T03:07:30.660Z,8.63
2022-10-17T03:10:33.344Z,9.50
2022-10-17T03:13:38.919Z,7.67
2022-10-17T03:16:42.593Z,8.07
2022-10-17T03:19:45.168Z,9.32
2022-10-17T03:22:49.146Z,8.60
2022-10-17T03:25:51.690Z,9.03
2022-10-17T03:28:54.697Z,9.20
2022-10-17T03:31:57.516Z,8.38
2022-10-17T03:35:00.171Z,7.83
2022-10-17T03:38:04.142Z,8.63
2022-10-17T03:41:07.624Z,7.38
2022-10-17T03:44:10.220Z,8.40
2022-10-17T03:47:14.215Z,8.68
2022-10-17T03:50:17.033Z,7.93
2022-10-17T03:53:21.059Z,7.85
2022-10-17T03:56:25.154Z,10.43
2022-10-17T03:59:27.801Z,6.97
2022-10-17T04:02:30.375Z,8.00
2022-10-17T04:05:32.918Z,8.77
2022-10-17T04:08:36.961Z,8.30
2022-10-17T04:11:39.865Z,6.55
2022-10-17T04:14:42.577Z,7.03
2022-10-17T04:17:45.165Z,7.82
2022-10-17T04:20:47.707Z,8.37
2022-10-17T04:23:54.451Z,7.78
2022-10-17T04:26:56.999Z,8.93
2022-10-17T04:29:59.567Z,7.45
2022-10-17T04:33:02.205Z,8.25
2022-10-17T04:36:07.061Z,8.20
2022-10-17T04:39:11.206Z,6.97
2022-10-17T04:42:13.782Z,6.88
2022-10-17T04:45:16.525Z,7.22
2022-10-17T04:48:19.263Z,8.15
2022-10-17T04:51:24.503Z,8.97
2022-10-17T04:54:30.468Z,7.93
2022-10-17T04:57:35.843Z,9.73
2022-10-17T05:00:38.558Z,10.50
2022-10-17T05:03:41.558Z,9.23
2022-10-17T05:06:44.279Z,8.43
2022-10-17T05:09:48.187Z,9.90
2022-10-17T05:12:51.986Z,9.88
2022-10-17T05:15:54.970Z,10.75
2022-10-17T05:18:59.055Z,9.38
2022-10-17T05:22:01.713Z,8.23
2022-10-17T05:25:06.587Z,8.48
2022-10-17T05:28:09.456Z,9.43
2022-10-17T05:31:12.635Z,8.18
2022-10-17T05:34:15.189Z,8.50
2022-10-17T05:37:17.775Z,8.80
2022-10-17T05:40:21.838Z,7.65
2022-10-17T05:43:24.373Z,7.85
2022-10-17T05:46:27.042Z,8.25
2022-10-17T05:49:44.731Z,9.07
2022-10-17T05:52:54.235Z,7.90
2022-10-17T05:55:59.346Z,7.97
2022-10-17T05:59:01.988Z,7.80
2022-10-17T06:02:04.785Z,8.70
2022-10-17T06:05:07.696Z,8.18
2022-10-17T06:08:10.270Z,8.53
2022-10-17T06:11:14.724Z,7.75
2022-10-17T06:14:17.434Z,7.93
2022-10-17T06:17:20.175Z,9.20
2022-10-17T06:20:22.723Z,7.85
2022-10-17T06:23:25.435Z,8.00
2022-10-17T06:26:29.422Z,8.85
2022-10-17T06:29:32.044Z,7.95
2022-10-17T06:32:34.685Z,8.70
2022-10-17T06:35:37.237Z,8.52
2022-10-17T06:38:39.836Z,8.97
2022-10-17T06:41:44.546Z,10.65
2022-10-17T06:44:47.135Z,9.63
2022-10-17T06:47:50.358Z,9.52
2022-10-17T06:50:52.945Z,9.60
2022-10-17T06:53:55.605Z,8.80
2022-10-17T06:56:59.493Z,11.00
2022-10-17T07:00:02.187Z,8.88
2022-10-17T07:03:04.898Z,8.10
2022-10-17T07:06:07.940Z,10.77
2022-10-17T07:09:10.551Z,7.90
2022-10-17T07:12:14.481Z,7.82
2022-10-17T07:15:17.279Z,12.48
2022-10-17T07:18:19.857Z,8.47
2022-10-17T07:21:22.443Z,7.13
2022-10-17T07:24:25.018Z,7.63
2022-10-17T07:27:29.468Z,8.98
2022-10-17T07:30:32.318Z,7.35
2022-10-17T07:33:35.019Z,8.33
2022-10-17T07:36:37.821Z,8.33
2022-10-17T07:39:40.896Z,6.63
2022-10-17T07:42:44.840Z,6.95
2022-10-17T07:45:47.425Z,7.30
2022-10-17T07:48:49.981Z,8.73
2022-10-17T07:51:52.685Z,8.03
2022-10-17T07:54:55.302Z,6.28
2022-10-17T07:58:00.582Z,7.20
2022-10-17T08:01:05.938Z,9.53
2022-10-17T08:04:10.001Z,6.80
2022-10-17T08:07:20.931Z,7.72
2022-10-17T08:10:29.292Z,6.32
2022-10-17T08:13:33.720Z,7.20
2022-10-17T08:16:36.778Z,9.67
2022-10-17T08:19:40.273Z,7.88
2022-10-17T08:22:43.047Z,6.22
2022-10-17T08:25:45.608Z,6.70
2022-10-17T08:28:50.373Z,6.60
2022-10-17T08:31:58.517Z,6.93
2022-10-17T08:35:04.075Z,6.30
2022-10-17T08:38:09.983Z,6.88
2022-10-17T08:41:21.522Z,6.93
2022-10-17T08:44:38.356Z,5.97
2022-10-17T08:47:44.230Z,5.90
2022-10-17T08:50:52.868Z,7.50
2022-10-17T08:54:02.413Z,6.07
2022-10-17T08:57:05.110Z,5.97
2022-10-17T09:00:16.511Z,5.83
2022-10-17T09:03:33.839Z,5.93
2022-10-17T09:06:39.963Z,7.18
2022-10-17T09:09:50.878Z,6.68
2022-10-17T09:13:06.857Z,6.65
2022-10-17T09:16:32.954Z,8.27
2022-10-17T09:19:39.347Z,6.40
2022-10-17T09:22:47.475Z,6.25
2022-10-17T09:25:53.687Z,10.07
2022-10-17T09:28:59.460Z,5.88
2022-10-17T09:32:05.682Z,6.17
2022-10-17T09:35:14.317Z,7.17
2022-10-17T09:38:19.216Z,6.97
2022-10-17T09:44:53.129Z,5.80
2022-10-17T09:48:03.785Z,7.40
2022-10-17T09:51:25.150Z,6.77
2022-10-17T09:54:40.881Z,6.13
2022-10-17T09:57:54.825Z,6.38
2022-10-17T10:01:21.037Z,7.05
2022-10-17T10:04:30.337Z,5.93
2022-10-17T10:07:40.469Z,5.40
2022-10-17T10:10:44.469Z,6.20
2022-10-17T10:13:49.280Z,6.55
2022-10-17T10:16:53.753Z,5.53
2022-10-17T10:19:57.693Z,5.50
2022-10-17T10:23:08.884Z,5.33
2022-10-17T10:26:26.447Z,7.30
2022-10-17T10:29:32.464Z,5.88
2022-10-17T10:32:37.612Z,7.68
2022-10-17T10:35:41.648Z,6.27
2022-10-17T10:38:54.905Z,6.53
2022-10-17T10:41:57.733Z,7.10
2022-10-17T10:45:03.968Z,5.65
2022-10-17T10:48:20.106Z,5.53
2022-10-17T10:51:29.322Z,6.07
2022-10-17T10:54:36.683Z,5.63
2022-10-17T10:57:41.023Z,8.05
2022-10-17T11:00:44.488Z,5.13
2022-10-17T11:03:57.201Z,5.28
2022-10-17T11:07:06.097Z,6.33
2022-10-17T11:10:15.083Z,5.67
2022-10-17T11:13:24.395Z,5.25
2022-10-17T11:16:33.975Z,5.38
2022-10-17T11:19:40.945Z,5.65
2022-10-17T11:22:48.148Z,5.37
2022-10-17T11:25:53.320Z,7.37
2022-10-17T11:28:57.201Z,5.47
2022-10-17T11:32:08.945Z,5.97
2022-10-17T11:35:21.376Z,6.78
2022-10-17T11:38:37.621Z,5.77
2022-10-17T11:41:44.279Z,5.40
2022-10-17T11:44:46.919Z,7.32
2022-10-17T11:47:54.298Z,7.07
2022-10-17T11:54:33.924Z,5.50
2022-10-17T11:57:50.932Z,6.03
2022-10-17T12:01:01.583Z,6.57
2022-10-17T12:04:23.022Z,5.97
2022-10-17T12:07:37.705Z,6.03
2022-10-17T12:10:49.773Z,6.07
2022-10-17T12:13:55.185Z,7.07
2022-10-17T12:16:57.895Z,6.70
2022-10-17T12:20:28.336Z,6.78
2022-10-17T12:23:32.601Z,6.57
2022-10-17T12:26:36.554Z,5.13
2022-10-17T12:29:39.160Z,7.20
2022-10-17T12:33:05.617Z,6.32
2022-10-17T12:36:45.050Z,5.75
2022-10-17T12:39:47.657Z,8.27
2022-10-17T12:42:51.818Z,6.40
2022-10-17T12:45:56.144Z,6.17
2022-10-17T12:49:05.007Z,5.00
2022-10-17T12:52:20.854Z,5.35
2022-10-17T12:55:25.630Z,5.32
2022-10-17T12:58:32.137Z,5.77
2022-10-17T13:01:37.990Z,6.57
2022-10-17T13:04:40.677Z,6.15
2022-10-17T13:07:46.972Z,5.82
2022-10-17T13:10:52.664Z,6.07
2022-10-17T13:13:59.340Z,5.07
2022-10-17T13:17:04.049Z,5.57
2022-10-17T13:20:24.466Z,4.73
2022-10-17T13:23:33.110Z,6.07
2022-10-17T13:26:35.724Z,6.65
2022-10-17T13:29:45.508Z,6.38
2022-10-17T13:32:48.105Z,4.87
2022-10-17T13:36:06.170Z,5.00
2022-10-17T13:39:12.483Z,5.80
2022-10-17T13:42:23.549Z,6.80
2022-10-17T13:45:32.568Z,7.35
2022-10-17T13:48:38.859Z,6.77
2022-10-17T13:51:44.892Z,5.47
2022-10-17T13:54:50.942Z,8.02
2022-10-17T13:57:53.636Z,6.10
2022-10-17T14:00:58.433Z,5.85
2022-10-17T14:04:09.043Z,5.07
2022-10-17T14:07:29.294Z,6.57
2022-10-17T14:10:36.713Z,4.95
2022-10-17T14:13:39.786Z,7.55
2022-10-17T14:16:44.938Z,5.25
2022-10-17T14:19:55.496Z,6.80
2022-10-17T14:23:30.604Z,6.27
2022-10-17T14:26:37.151Z,5.55
2022-10-17T14:29:52.682Z,6.95
2022-10-17T14:32:59.084Z,6.40
2022-10-17T14:36:03.686Z,5.57
2022-10-17T14:39:14.177Z,5.47
2022-10-17T14:42:20.738Z,8.88
2022-10-17T14:45:28.204Z,6.25
2022-10-17T14:48:33.030Z,7.60
2022-10-17T14:51:50.227Z,8.60
2022-10-17T14:55:01.592Z,6.00
2022-10-17T14:58:17.346Z,7.03
2022-10-17T15:01:20.671Z,5.03
2022-10-17T15:04:24.710Z,7.15
2022-10-17T15:07:27.337Z,4.63
2022-10-17T15:10:34.473Z,5.60
2022-10-17T15:13:42.145Z,6.47
2022-10-17T15:16:47.392Z,4.35
2022-10-17T15:19:54.588Z,6.57
2022-10-17T15:22:58.935Z,5.93
2022-10-17T15:26:02.023Z,6.60
2022-10-17T15:29:05.183Z,4.90
2022-10-17T15:32:07.943Z,6.00
2022-10-17T15:35:12.266Z,5.45
2022-10-17T15:38:18.990Z,6.30
2022-10-17T15:41:21.916Z,5.53
2022-10-17T15:44:24.560Z,6.55
2022-10-17T15:47:31.199Z,6.43
2022-10-17T15:50:35.564Z,5.63
2022-10-17T15:53:38.258Z,6.30
2022-10-17T15:56:43.138Z,7.60
2022-10-17T15:59:47.086Z,6.88
2022-10-17T16:02:50.328Z,5.90
2022-10-17T16:05:54.254Z,6.97
2022-10-17T16:08:56.974Z,5.47
2022-10-17T16:11:59.569Z,6.33
2022-10-17T16:15:02.223Z,5.47
2022-10-17T16:18:07.318Z,5.78
2022-10-17T16:21:14.303Z,4.75
2022-10-17T16:24:17.844Z,5.80
2022-10-17T16:27:20.435Z,5.33
2022-10-17T16:30:24.982Z,6.10
2022-10-17T16:33:27.661Z,5.38
2022-10-17T16:36:31.619Z,5.78
2022-10-17T16:39:34.196Z,6.55
2022-10-17T16:42:36.760Z,5.33
2022-10-17T16:45:39.523Z,6.05
2022-10-17T16:48:42.909Z,6.05
2022-10-17T16:51:46.861Z,6.20
2022-10-17T16:54:49.415Z,6.22
2022-10-17T16:57:53.034Z,5.57
2022-10-17T17:00:55.654Z,5.97
2022-10-17T17:03:58.826Z,5.75
2022-10-17T17:07:02.966Z,5.97
2022-10-17T17:10:06.401Z,6.68
2022-10-17T17:13:09.073Z,6.50
2022-10-17T17:16:13.399Z,6.32
2022-10-17T17:19:17.865Z,6.10
2022-10-17T17:22:21.750Z,6.70
2022-10-17T17:25:24.567Z,5.93
2022-10-17T17:28:27.991Z,6.77
2022-10-17T17:31:33.359Z,5.93
2022-10-17T17:34:37.335Z,6.50
2022-10-17T17:37:41.257Z,7.22
2022-10-17T17:40:50.582Z,8.05
2022-10-17T17:43:54.317Z,6.60
2022-10-17T17:46:56.852Z,7.13
2022-10-17T17:49:59.423Z,6.43
2022-10-17T17:53:03.359Z,7.70
2022-10-17T17:56:10.493Z,7.22
2022-10-17T17:59:14.296Z,7.93
2022-10-17T18:02:27.064Z,8.10
2022-10-17T18:05:30.017Z,10.73
2022-10-17T18:08:33.934Z,9.02
2022-10-17T18:11:37.414Z,8.77
2022-10-17T18:14:40.033Z,8.77
2022-10-17T18:17:42.904Z,7.85
2022-10-17T18:20:45.507Z,8.20
2022-10-17T18:23:50.558Z,9.15
2022-10-17T18:26:56.026Z,9.02
2022-10-17T18:29:58.722Z,8.97
2022-10-17T18:33:01.284Z,9.73
2022-10-17T18:36:07.091Z,7.57
2022-10-17T18:39:11.377Z,8.13
2022-10-17T18:42:13.917Z,8.27
2022-10-17T18:45:17.388Z,7.87
2022-10-17T18:48:19.964Z,6.90
2022-10-17T18:51:24.069Z,7.03
2022-10-17T18:54:29.205Z,7.65
2022-10-17T18:57:31.948Z,7.70
2022-10-17T19:00:34.930Z,7.33
2022-10-17T19:03:38.061Z,7.32
2022-10-17T19:06:41.951Z,5.80
2022-10-17T19:09:45.846Z,7.25
2022-10-17T19:12:48.473Z,6.35
2022-10-17T19:15:51.060Z,6.60
2022-10-17T19:18:55.371Z,6.45
2022-10-17T19:21:59.998Z,6.80
2022-10-17T19:25:04.213Z,7.32
2022-10-17T19:28:06.926Z,7.30
2022-10-17T19:31:12.983Z,18.40
2022-10-17T19:34:18.933Z,18.50
2022-10-17T19:37:21.496Z,16.67
2022-10-17T19:40:25.533Z,18.65
2022-10-17T19:43:29.172Z,22.45
2022-10-17T19:46:33.832Z,22.50
2022-10-17T19:49:36.967Z,16.17
2022-10-17T19:52:39.517Z,12.93
2022-10-17T19:55:44.000Z,11.18
2022-10-17T19:58:47.061Z,7.78
2022-10-17T20:01:49.721Z,7.87
2022-10-17T20:04:54.763Z,6.80
2022-10-17T20:08:15.520Z,7.47
2022-10-17T20:11:21.854Z,7.13
2022-10-17T20:14:24.664Z,8.15
2022-10-17T20:17:27.478Z,6.40
2022-10-17T20:20:30.269Z,6.72
2022-10-17T20:23:33.324Z,7.90
2022-10-17T20:26:39.067Z,8.15
2022-10-17T20:29:42.441Z,7.68
2022-10-17T20:32:45.122Z,8.90
2022-10-17T20:35:48.410Z,6.93
2022-10-17T20:38:54.287Z,8.00
2022-10-17T20:41:58.260Z,8.15
2022-10-17T20:45:00.965Z,8.50
2022-10-17T20:48:03.626Z,10.87
2022-10-17T20:51:08.621Z,10.60
2022-10-17T20:54:11.796Z,8.80
2022-10-17T20:57:15.740Z,9.85
2022-10-17T21:00:18.468Z,10.70
2022-10-17T21:03:21.055Z,9.87
2022-10-17T21:06:24.952Z,10.73
2022-10-17T21:09:27.591Z,10.30
2022-10-17T21:12:50.146Z,8.98
2022-10-17T21:15:54.357Z,10.80
2022-10-17T21:18:58.144Z,9.00
2022-10-17T21:22:00.867Z,8.93
2022-10-17T21:25:03.487Z,8.90
2022-10-17T21:28:07.609Z,8.75
2022-10-17T21:31:12.716Z,11.07
2022-10-17T21:34:18.930Z,9.30
2022-10-17T21:37:21.692Z,11.20
2022-10-17T21:40:24.266Z,8.77
2022-10-17T21:43:28.326Z,8.57
2022-10-17T21:46:31.579Z,8.07
2022-10-17T21:49:35.108Z,8.50
2022-10-17T21:52:37.629Z,9.85
2022-10-17T21:55:40.355Z,8.02
2022-10-17T21:58:44.900Z,9.45
2022-10-17T22:01:48.044Z,8.63
2022-10-17T22:04:50.821Z,8.03
2022-10-17T22:07:53.366Z,8.00
2022-10-17T22:10:55.964Z,8.73
2022-10-17T22:14:01.446Z,8.52
2022-10-17T22:17:04.224Z,9.60
2022-10-17T22:20:07.846Z,8.77
2022-10-17T22:23:10.523Z,8.70
2022-10-17T22:26:14.106Z,9.05
2022-10-17T22:29:18.825Z,8.70
2022-10-17T22:32:22.605Z,9.32
2022-10-17T22:35:25.436Z,9.03
2022-10-17T22:38:28.301Z,8.57
2022-10-17T22:41:30.845Z,9.10
2022-10-17T22:44:34.890Z,8.43
2022-10-17T22:47:37.697Z,7.63
2022-10-17T22:50:42.532Z,8.70
2022-10-17T22:53:45.325Z,8.60
2022-10-17T22:56:47.903Z,8.80
2022-10-17T22:59:51.912Z,8.88
2022-10-17T23:02:54.954Z,7.88
2022-10-17T23:05:57.675Z,8.63
2022-10-17T23:09:00.465Z,9.33
2022-10-17T23:12:03.030Z,9.88
2022-10-17T23:15:08.278Z,10.52
2022-10-17T23:18:11.415Z,8.70
2022-10-17T23:21:14.180Z,9.33
2022-10-17T23:24:17.077Z,8.90
2022-10-17T23:27:19.670Z,8.57
2022-10-17T23:30:23.719Z,10.45
2022-10-17T23:33:26.412Z,10.05
2022-10-17T23:36:29.010Z,10.70
2022-10-17T23:39:31.619Z,9.77
2022-10-17T23:42:34.255Z,9.43
2022-10-17T23:45:38.309Z,10.80
2022-10-17T23:48:41.496Z,10.52
2022-10-17T23:51:44.094Z,10.87
2022-10-17T23:54:46.817Z,10.00
2022-10-17T23:57:49.396Z,9.90
